createdAt,value
2022-08-05T00:00:23.029Z,25.61
2022-08-05T00:02:51.816Z,25.63
2022-08-05T00:05:27.049Z,25.60
2022-08-05T00:08:00.014Z,25.61
2022-08-05T00:10:09.238Z,25.61
2022-08-05T00:12:35.153Z,25.61
2022-08-05T00:15:54.062Z,25.61
2022-08-05T00:17:28.050Z,25.61
2022-08-05T00:20:01.932Z,25.60
2022-08-05T00:22:22.074Z,25.60
2022-08-05T00:24:47.351Z,25.60
2022-08-05T00:27:28.583Z,25.58
2022-08-05T00:29:40.219Z,25.60
2022-08-05T00:32:13.195Z,25.59
2022-08-05T00:34:53.413Z,25.61
2022-08-05T00:37:11.169Z,25.61
2022-08-05T00:39:28.435Z,25.61
2022-08-05T00:41:55.786Z,25.58
2022-08-05T00:44:21.275Z,25.60
2022-08-05T00:46:47.681Z,25.59
2022-08-05T00:49:14.682Z,25.61
2022-08-05T00:51:50.458Z,25.58
2022-08-05T00:54:06.981Z,25.58
2022-08-05T00:56:33.373Z,25.57
2022-08-05T00:59:00.330Z,25.59
2022-08-05T01:01:42.678Z,25.59
2022-08-05T01:03:52.639Z,25.57
2022-08-05T01:06:19.043Z,25.57
2022-08-05T01:08:47.442Z,25.58
2022-08-05T01:11:11.853Z,25.57
2022-08-05T01:13:58.030Z,25.56
2022-08-05T01:16:04.780Z,25.54
2022-08-05T01:18:31.211Z,25.54
2022-08-05T01:20:58.082Z,25.56
2022-08-05T01:23:24.517Z,25.54
2022-08-05T01:25:53.672Z,25.57
2022-08-05T01:28:17.383Z,25.56
2022-08-05T01:30:53.541Z,25.54
2022-08-05T01:33:10.221Z,25.54
2022-08-05T01:35:50.657Z,25.56
2022-08-05T01:38:03.219Z,25.56
2022-08-05T01:40:29.631Z,25.54
2022-08-05T01:42:56.087Z,25.54
2022-08-05T01:45:22.481Z,25.53
2022-08-05T01:47:50.539Z,25.56
2022-08-05T01:50:15.947Z,25.54
2022-08-05T01:52:41.769Z,25.54
2022-08-05T01:55:08.174Z,25.52
2022-08-05T01:58:18.880Z,25.52
2022-08-05T02:00:01.119Z,25.53
2022-08-05T02:02:28.620Z,25.54
2022-08-05T02:04:55.315Z,25.54
2022-08-05T02:07:22.401Z,25.59
2022-08-05T02:09:46.874Z,25.58
2022-08-05T02:12:13.263Z,25.58
2022-08-05T02:14:39.645Z,25.57
2022-08-05T02:17:06.031Z,25.57
2022-08-05T02:19:34.432Z,25.57
2022-08-05T02:21:58.834Z,25.58
2022-08-05T02:24:25.209Z,25.57
2022-08-05T02:26:53.820Z,25.58
2022-08-05T02:29:21.454Z,25.58
2022-08-05T02:31:44.544Z,25.58
2022-08-05T02:34:10.917Z,25.58
2022-08-05T02:36:37.340Z,25.58
2022-08-05T02:39:03.743Z,25.58
2022-08-05T02:41:42.855Z,25.57
2022-08-05T02:44:02.459Z,25.56
2022-08-05T02:46:27.382Z,25.54
2022-08-05T02:48:49.337Z,25.54
2022-08-05T02:51:15.734Z,25.53
2022-08-05T02:53:42.122Z,25.53
2022-08-05T02:56:08.503Z,25.51
2022-08-05T02:58:34.881Z,25.49
2022-08-05T03:01:01.957Z,25.48
2022-08-05T03:03:27.748Z,25.48
2022-08-05T03:06:56.095Z,25.47
2022-08-05T03:08:26.867Z,25.46
2022-08-05T03:11:53.518Z,25.46
2022-08-05T03:13:16.576Z,25.46
2022-08-05T03:15:39.803Z,25.43
2022-08-05T03:18:06.200Z,25.44
2022-08-05T03:20:32.619Z,25.44
2022-08-05T03:22:59.040Z,25.39
2022-08-05T03:25:32.531Z,25.42
2022-08-05T03:27:59.300Z,25.39
2022-08-05T03:30:18.315Z,25.40
2022-08-05T03:32:44.747Z,25.40
2022-08-05T03:35:11.128Z,25.37
2022-08-05T03:37:41.727Z,25.38
2022-08-05T03:40:05.102Z,25.38
2022-08-05T03:42:32.324Z,25.38
2022-08-05T03:44:57.089Z,25.39
2022-08-05T03:47:23.333Z,25.39
2022-08-05T03:49:51.475Z,25.38
2022-08-05T03:52:37.937Z,25.39
2022-08-05T03:55:50.797Z,25.38
2022-08-05T03:57:16.068Z,25.39
2022-08-05T03:59:47.488Z,25.38
2022-08-05T04:02:01.631Z,25.37
2022-08-05T04:04:27.971Z,25.40
2022-08-05T04:06:54.351Z,25.35
2022-08-05T04:09:26.380Z,25.27
2022-08-05T04:11:52.449Z,25.18
2022-08-05T04:14:17.843Z,25.06
2022-08-05T04:16:40.032Z,25.01
2022-08-05T04:19:10.547Z,24.95
2022-08-05T04:22:08.132Z,24.92
2022-08-05T04:24:05.906Z,24.94
2022-08-05T04:26:25.602Z,24.92
2022-08-05T04:28:52.237Z,24.91
2022-08-05T04:31:18.397Z,24.95
2022-08-05T04:34:19.158Z,25.00
2022-08-05T04:36:38.213Z,25.04
2022-08-05T04:38:39.849Z,24.99
2022-08-05T04:41:04.020Z,25.03
2022-08-05T04:43:30.410Z,25.04
2022-08-05T04:45:56.818Z,25.03
2022-08-05T04:48:28.048Z,25.06
2022-08-05T04:51:03.751Z,25.06
2022-08-05T04:53:16.006Z,25.09
2022-08-05T04:56:32.852Z,25.06
2022-08-05T04:58:08.770Z,25.08
2022-08-05T05:00:35.163Z,25.09
2022-08-05T05:03:03.952Z,25.15
2022-08-05T05:05:28.786Z,25.10
2022-08-05T05:07:56.676Z,25.13
2022-08-05T05:10:20.777Z,25.12
2022-08-05T05:12:47.201Z,25.15
2022-08-05T05:15:13.576Z,25.15
2022-08-05T05:17:57.051Z,25.17
2022-08-05T05:20:06.432Z,25.14
2022-08-05T05:22:32.821Z,25.17
2022-08-05T05:25:01.145Z,25.17
2022-08-05T05:27:45.122Z,25.16
2022-08-05T05:30:05.008Z,25.18
2022-08-05T05:32:18.420Z,25.15
2022-08-05T05:34:44.793Z,25.16
2022-08-05T05:37:11.172Z,25.16
2022-08-05T05:39:37.594Z,25.15
2022-08-05T05:42:03.936Z,25.17
2022-08-05T05:44:36.955Z,25.18
2022-08-05T05:46:58.058Z,25.20
2022-08-05T05:49:23.459Z,25.20
2022-08-05T05:51:50.774Z,25.20
2022-08-05T05:54:16.085Z,25.18
2022-08-05T05:56:42.466Z,25.20
2022-08-05T05:59:08.841Z,25.15
2022-08-05T06:01:37.381Z,25.16
2022-08-05T06:04:03.603Z,25.15
2022-08-05T06:06:30.953Z,25.15
2022-08-05T06:08:54.528Z,25.19
2022-08-05T06:11:20.919Z,25.14
2022-08-05T06:13:53.870Z,25.14
2022-08-05T06:16:30.285Z,25.21
2022-08-05T06:18:40.161Z,25.16
2022-08-05T06:21:08.006Z,25.21
2022-08-05T06:23:44.159Z,25.23
2022-08-05T06:26:13.499Z,25.25
2022-08-05T06:28:28.427Z,25.24
2022-08-05T06:30:52.066Z,25.23
2022-08-05T06:33:19.305Z,25.17
2022-08-05T06:36:05.665Z,25.16
2022-08-05T06:38:11.977Z,25.14
2022-08-05T06:40:37.690Z,25.13
2022-08-05T06:43:04.073Z,25.10
2022-08-05T06:45:44.650Z,25.07
2022-08-05T06:48:37.079Z,25.04
2022-08-05T06:50:23.634Z,24.98
2022-08-05T06:52:58.717Z,24.97
2022-08-05T06:55:16.058Z,25.02
2022-08-05T06:58:03.003Z,25.01
2022-08-05T07:00:09.864Z,25.05
2022-08-05T07:02:35.246Z,25.08
2022-08-05T07:05:01.650Z,25.09
2022-08-05T07:07:35.577Z,25.06
2022-08-05T07:09:58.407Z,25.06
2022-08-05T07:12:21.845Z,25.08
2022-08-05T07:14:48.232Z,25.07
2022-08-05T07:18:02.423Z,25.12
2022-08-05T07:20:31.454Z,25.08
2022-08-05T07:22:07.409Z,25.13
2022-08-05T07:24:35.104Z,25.16
2022-08-05T07:27:00.172Z,25.17
2022-08-05T07:30:27.579Z,25.09
2022-08-05T07:31:54.573Z,25.14
2022-08-05T07:34:21.475Z,25.08
2022-08-05T07:36:45.743Z,25.09
2022-08-05T07:39:50.396Z,25.20
2022-08-05T07:42:13.506Z,25.18
2022-08-05T07:44:04.946Z,25.16
2022-08-05T07:46:31.352Z,25.20
2022-08-05T07:49:03.633Z,25.22
2022-08-05T07:51:36.645Z,25.22
2022-08-05T07:53:51.683Z,25.18
2022-08-05T07:57:00.724Z,25.17
2022-08-05T07:58:58.700Z,25.18
2022-08-05T08:01:12.318Z,25.22
2022-08-05T08:03:44.438Z,25.23
2022-08-05T08:06:02.549Z,25.17
2022-08-05T08:08:28.977Z,25.15
2022-08-05T08:10:55.371Z,25.14
2022-08-05T08:13:28.836Z,25.17
2022-08-05T08:16:50.084Z,25.16
2022-08-05T08:18:15.555Z,25.17
2022-08-05T08:20:59.872Z,25.22
2022-08-05T08:23:07.449Z,25.15
2022-08-05T08:26:00.393Z,25.16
2022-08-05T08:28:00.335Z,25.15
2022-08-05T08:30:32.497Z,25.15
2022-08-05T08:32:53.133Z,25.19
2022-08-05T08:35:19.519Z,25.19
2022-08-05T08:37:45.898Z,25.15
2022-08-05T08:40:12.401Z,25.18
2022-08-05T08:42:50.553Z,25.16
2022-08-05T08:45:19.741Z,25.18
2022-08-05T08:48:06.327Z,25.16
2022-08-05T08:50:12.925Z,25.19
2022-08-05T08:52:25.083Z,25.18
2022-08-05T08:54:50.723Z,25.16
2022-08-05T08:57:17.709Z,25.18
2022-08-05T08:59:47.048Z,25.18
2022-08-05T09:02:09.946Z,25.18
2022-08-05T09:04:36.336Z,25.16
2022-08-05T09:07:02.746Z,25.16
2022-08-05T09:09:34.774Z,25.17
2022-08-05T09:12:01.248Z,25.15
2022-08-05T09:14:58.822Z,25.15
2022-08-05T09:16:48.774Z,25.13
2022-08-05T09:19:14.766Z,25.10
2022-08-05T09:22:23.426Z,25.12
2022-08-05T09:24:07.461Z,25.15
2022-08-05T09:26:33.837Z,25.16
2022-08-05T09:29:00.225Z,25.16
2022-08-05T09:32:38.586Z,25.08
2022-08-05T09:33:52.999Z,25.15
2022-08-05T09:36:19.417Z,25.09
2022-08-05T09:38:45.801Z,25.13
2022-08-05T09:41:12.184Z,25.16
2022-08-05T09:43:41.680Z,25.14
2022-08-05T09:46:07.033Z,25.16
2022-08-05T09:48:31.404Z,25.22
2022-08-05T09:50:57.809Z,25.23
2022-08-05T09:53:25.994Z,25.24
2022-08-05T09:55:57.524Z,25.29
2022-08-05T09:58:16.986Z,25.27
2022-08-05T10:00:43.371Z,25.28
2022-08-05T10:03:09.843Z,25.23
2022-08-05T10:05:36.234Z,25.18
2022-08-05T10:08:34.893Z,25.24
2022-08-05T10:10:32.404Z,25.21
2022-08-05T10:12:55.440Z,25.19
2022-08-05T10:15:21.865Z,25.15
2022-08-05T10:17:56.745Z,25.14
2022-08-05T10:20:14.608Z,25.08
2022-08-05T10:22:48.746Z,25.13
2022-08-05T10:25:07.590Z,25.02
2022-08-05T10:28:13.104Z,25.02
2022-08-05T10:30:41.829Z,25.04
2022-08-05T10:32:53.918Z,25.04
2022-08-05T10:34:53.070Z,25.07
2022-08-05T10:37:19.489Z,25.07
2022-08-05T10:39:59.236Z,25.05
2022-08-05T10:42:12.341Z,25.09
2022-08-05T10:44:38.737Z,25.05
2022-08-05T10:47:05.122Z,25.04
2022-08-05T10:49:33.017Z,25.02
2022-08-05T10:52:00.404Z,25.01
2022-08-05T10:54:29.838Z,25.00
2022-08-05T10:56:52.849Z,25.04
2022-08-05T11:00:03.645Z,25.07
2022-08-05T11:02:03.826Z,25.13
2022-08-05T11:04:10.921Z,25.16
2022-08-05T11:06:37.309Z,25.14
2022-08-05T11:09:03.688Z,25.21
2022-08-05T11:11:33.154Z,25.16
2022-08-05T11:13:58.221Z,25.18
2022-08-05T11:16:22.852Z,25.18
2022-08-05T11:18:49.270Z,25.21
2022-08-05T11:21:15.681Z,25.30
2022-08-05T11:24:03.912Z,25.30
2022-08-05T11:26:09.022Z,25.28
2022-08-05T11:28:36.027Z,25.31
2022-08-05T11:31:01.240Z,25.30
2022-08-05T11:33:34.727Z,25.30
2022-08-05T11:36:08.384Z,25.30
2022-08-05T11:38:30.350Z,25.29
2022-08-05T11:40:46.840Z,25.25
2022-08-05T11:43:13.232Z,25.23
2022-08-05T11:46:15.594Z,25.19
2022-08-05T11:48:05.996Z,25.18
2022-08-05T11:50:32.472Z,25.12
2022-08-05T11:52:58.864Z,25.14
2022-08-05T11:55:31.621Z,25.12
2022-08-05T11:58:09.969Z,25.17
2022-08-05T12:00:18.023Z,25.22
2022-08-05T12:02:44.582Z,25.23
2022-08-05T12:05:17.849Z,25.29
2022-08-05T12:08:08.132Z,25.31
2022-08-05T12:10:09.480Z,25.33
2022-08-05T12:12:30.004Z,25.30
2022-08-05T12:14:56.388Z,25.24
2022-08-05T12:18:04.164Z,25.33
2022-08-05T12:20:16.745Z,25.30
2022-08-05T12:22:19.982Z,25.34
2022-08-05T12:24:41.963Z,25.32
2022-08-05T12:27:09.681Z,25.33
2022-08-05T12:29:37.938Z,25.29
2022-08-05T12:32:02.167Z,25.29
2022-08-05T12:34:27.626Z,25.32
2022-08-05T12:36:54.005Z,25.33
2022-08-05T12:39:20.482Z,25.28
2022-08-05T12:41:46.774Z,25.31
2022-08-05T12:44:14.440Z,25.28
2022-08-05T12:46:39.580Z,25.27
2022-08-05T12:49:13.823Z,25.31
2022-08-05T12:52:12.789Z,25.30
2022-08-05T12:53:58.746Z,25.25
2022-08-05T12:56:34.881Z,25.24
2022-08-05T12:58:55.689Z,25.22
2022-08-05T13:01:59.859Z,25.20
2022-08-05T13:03:48.698Z,25.17
2022-08-05T13:06:11.761Z,25.13
2022-08-05T13:08:37.222Z,25.17
2022-08-05T13:11:04.149Z,25.17
2022-08-05T13:14:05.965Z,25.15
2022-08-05T13:15:56.376Z,25.12
2022-08-05T13:18:24.068Z,25.17
2022-08-05T13:20:49.825Z,25.18
2022-08-05T13:23:16.420Z,25.19
2022-08-05T13:25:51.613Z,25.19
2022-08-05T13:28:10.586Z,25.18
2022-08-05T13:30:37.046Z,25.15
2022-08-05T13:33:02.141Z,25.18
2022-08-05T13:35:42.704Z,25.16
2022-08-05T13:37:55.498Z,25.22
2022-08-05T13:40:35.465Z,25.21
2022-08-05T13:42:47.498Z,25.25
2022-08-05T13:45:13.885Z,25.23
2022-08-05T13:48:08.619Z,25.25
2022-08-05T13:50:10.390Z,25.21
2022-08-05T13:52:35.191Z,25.31
2022-08-05T13:54:59.517Z,25.28
2022-08-05T13:57:26.180Z,25.29
2022-08-05T13:59:55.547Z,25.31
2022-08-05T14:02:20.116Z,25.37
2022-08-05T14:04:49.197Z,25.32
2022-08-05T14:07:25.065Z,25.36
2022-08-05T14:09:37.850Z,25.32
2022-08-05T14:12:17.624Z,25.35
2022-08-05T14:14:33.819Z,25.36
2022-08-05T14:16:57.519Z,25.33
2022-08-05T14:19:23.386Z,25.31
2022-08-05T14:22:09.901Z,25.30
2022-08-05T14:24:19.408Z,25.39
2022-08-05T14:27:02.115Z,25.29
2022-08-05T14:29:16.035Z,25.27
2022-08-05T14:32:02.910Z,25.29
2022-08-05T14:34:04.191Z,25.28
2022-08-05T14:36:30.671Z,25.27
2022-08-05T14:38:57.096Z,25.22
2022-08-05T14:41:23.439Z,25.21
2022-08-05T14:44:01.853Z,25.12
2022-08-05T14:46:16.203Z,25.09
2022-08-05T14:48:42.588Z,25.16
2022-08-05T14:51:08.968Z,25.13
2022-08-05T14:53:44.606Z,25.10
2022-08-05T14:56:01.762Z,25.14
2022-08-05T14:58:28.141Z,25.08
2022-08-05T15:00:58.825Z,25.07
2022-08-05T15:03:20.962Z,25.07
2022-08-05T15:06:08.379Z,25.04
2022-08-05T15:08:17.995Z,25.04
2022-08-05T15:10:40.207Z,25.03
2022-08-05T15:13:10.290Z,25.02
2022-08-05T15:15:54.018Z,25.03
2022-08-05T15:17:59.377Z,25.01
2022-08-05T15:20:25.759Z,25.06
2022-08-05T15:22:54.985Z,25.05
2022-08-05T15:25:23.526Z,25.05
2022-08-05T15:27:52.269Z,25.06
2022-08-05T15:30:11.287Z,25.08
2022-08-05T15:32:37.671Z,25.06
2022-08-05T15:35:11.617Z,25.05
2022-08-05T15:38:33.086Z,25.08
2022-08-05T15:40:59.222Z,25.13
2022-08-05T15:42:50.407Z,25.14
2022-08-05T15:44:49.667Z,25.15
2022-08-05T15:47:16.033Z,25.13
2022-08-05T15:49:56.661Z,25.13
2022-08-05T15:52:16.519Z,25.10
2022-08-05T15:54:37.592Z,25.09
2022-08-05T15:57:01.700Z,25.10
2022-08-05T15:59:28.074Z,25.10
2022-08-05T16:01:54.493Z,25.10
2022-08-05T16:04:20.839Z,25.12
2022-08-05T16:06:47.228Z,25.09
2022-08-05T16:09:13.614Z,25.12
2022-08-05T16:11:43.319Z,25.12
2022-08-05T16:14:06.406Z,25.13
2022-08-05T16:16:32.892Z,25.10
2022-08-05T16:18:59.283Z,25.10
2022-08-05T16:21:58.912Z,25.10
2022-08-05T16:23:53.610Z,25.09
2022-08-05T16:26:18.648Z,25.08
2022-08-05T16:28:45.031Z,25.04
2022-08-05T16:31:11.413Z,25.07
2022-08-05T16:33:41.375Z,25.06
2022-08-05T16:36:04.175Z,25.05
2022-08-05T16:38:30.585Z,25.05
2022-08-05T16:41:00.460Z,25.04
2022-08-05T16:43:23.825Z,25.06
2022-08-05T16:46:07.795Z,25.07
2022-08-05T16:48:24.985Z,25.10
2022-08-05T16:50:42.644Z,25.10
2022-08-05T16:53:12.634Z,25.12
2022-08-05T16:55:46.944Z,25.10
2022-08-05T16:58:03.518Z,25.13
2022-08-05T17:00:34.502Z,25.12
2022-08-05T17:02:54.607Z,25.10
2022-08-05T17:05:20.989Z,25.14
2022-08-05T17:07:54.681Z,25.12
2022-08-05T17:10:13.767Z,25.13
2022-08-05T17:12:51.636Z,25.13
2022-08-05T17:15:06.565Z,25.14
2022-08-05T17:17:42.018Z,25.16
2022-08-05T17:19:59.397Z,25.21
2022-08-05T17:22:26.060Z,25.23
2022-08-05T17:24:56.930Z,25.24
2022-08-05T17:27:18.503Z,25.28
2022-08-05T17:29:45.784Z,25.29
2022-08-05T17:32:17.621Z,25.31
2022-08-05T17:34:37.657Z,25.32
2022-08-05T17:37:04.668Z,25.34
2022-08-05T17:39:33.920Z,25.35
2022-08-05T17:42:28.386Z,25.35
2022-08-05T17:44:26.552Z,25.38
2022-08-05T17:46:49.611Z,25.37
2022-08-05T17:49:15.992Z,25.39
2022-08-05T17:51:43.640Z,25.39
2022-08-05T17:54:08.762Z,25.40
2022-08-05T17:56:36.151Z,25.44
2022-08-05T17:59:01.547Z,25.43
2022-08-05T18:01:27.926Z,25.44
2022-08-05T18:03:59.550Z,25.45
2022-08-05T18:06:20.746Z,25.47
2022-08-05T18:08:52.613Z,25.50
2022-08-05T18:11:24.711Z,25.52
2022-08-05T18:13:43.865Z,25.56
2022-08-05T18:16:06.380Z,25.58
2022-08-05T18:18:32.761Z,25.60
2022-08-05T18:20:59.157Z,25.60
2022-08-05T18:23:30.337Z,25.63
2022-08-05T18:25:57.611Z,25.65
2022-08-05T18:28:22.010Z,25.66
2022-08-05T18:30:44.732Z,25.65
2022-08-05T18:33:13.770Z,25.67
2022-08-05T18:36:00.960Z,25.67
2022-08-05T18:38:04.050Z,25.71
2022-08-05T18:41:53.154Z,25.71
2022-08-05T18:42:56.898Z,25.71
2022-08-05T18:45:23.219Z,25.72
2022-08-05T18:47:56.403Z,25.72
2022-08-05T18:50:15.998Z,25.74
2022-08-05T18:52:51.049Z,25.74
2022-08-05T18:55:10.629Z,25.75
2022-08-05T18:57:50.202Z,25.75
2022-08-05T19:00:07.729Z,25.76
2022-08-05T19:02:28.926Z,25.76
2022-08-05T19:05:01.118Z,25.77
2022-08-05T19:07:20.785Z,25.78
2022-08-05T19:09:47.208Z,25.78
2022-08-05T19:12:13.591Z,25.77
2022-08-05T19:15:00.989Z,25.79
2022-08-05T19:17:07.785Z,25.80
2022-08-05T19:19:32.899Z,25.80
2022-08-05T19:21:59.289Z,25.80
2022-08-05T19:24:34.627Z,25.80
2022-08-05T19:26:55.385Z,25.81
2022-08-05T19:29:20.228Z,25.82
2022-08-05T19:31:50.883Z,25.82
2022-08-05T19:34:11.561Z,25.81
2022-08-05T19:36:37.925Z,25.82
2022-08-05T19:39:04.446Z,25.81
2022-08-05T19:42:05.463Z,25.82
2022-08-05T19:44:05.375Z,25.82
2022-08-05T19:46:30.607Z,25.83
2022-08-05T19:48:49.964Z,25.84
2022-08-05T19:51:56.307Z,25.84
2022-08-05T19:54:04.867Z,25.82
2022-08-05T19:56:14.497Z,25.83
2022-08-05T19:58:53.275Z,25.81
2022-08-05T20:01:02.043Z,25.81
2022-08-05T20:03:40.501Z,25.80
2022-08-05T20:05:54.767Z,25.80
2022-08-05T20:08:24.599Z,25.81
2022-08-05T20:10:49.406Z,25.81
2022-08-05T20:13:15.543Z,25.80
2022-08-05T20:15:52.050Z,25.80
2022-08-05T20:18:10.384Z,25.78
2022-08-05T20:20:33.080Z,25.79
2022-08-05T20:22:59.453Z,25.79
2022-08-05T20:25:25.836Z,25.78
2022-08-05T20:27:52.221Z,25.78
2022-08-05T20:30:19.694Z,25.78
2022-08-05T20:32:45.208Z,25.79
2022-08-05T20:35:11.379Z,25.78
2022-08-05T20:38:06.016Z,25.78
2022-08-05T20:40:04.270Z,25.79
2022-08-05T20:42:30.589Z,25.78
2022-08-05T20:44:56.974Z,25.79
2022-08-05T20:47:32.497Z,25.78
2022-08-05T20:49:51.292Z,25.78
2022-08-05T20:52:16.143Z,25.77
2022-08-05T20:54:59.187Z,25.79
2022-08-05T20:57:09.194Z,25.80
2022-08-05T21:00:10.587Z,25.80
2022-08-05T21:02:01.984Z,25.81
2022-08-05T21:04:28.319Z,25.80
2022-08-05T21:06:54.700Z,25.80
2022-08-05T21:09:21.091Z,25.78
2022-08-05T21:12:10.695Z,25.79
2022-08-05T21:14:13.906Z,25.78
2022-08-05T21:16:40.262Z,25.79
2022-08-05T21:19:06.736Z,25.79
2022-08-05T21:21:39.131Z,25.79
2022-08-05T21:23:59.558Z,25.77
2022-08-05T21:26:26.368Z,25.80
2022-08-05T21:28:52.361Z,25.79
2022-08-05T21:31:18.719Z,25.78
2022-08-05T21:33:50.865Z,25.78
2022-08-05T21:36:27.710Z,25.80
2022-08-05T21:38:43.729Z,25.80
2022-08-05T21:41:12.017Z,25.82
2022-08-05T21:43:41.780Z,25.82
2022-08-05T21:46:04.039Z,25.82
2022-08-05T21:48:29.370Z,25.82
2022-08-05T21:50:55.772Z,25.81
2022-08-05T21:53:27.106Z,25.82
2022-08-05T21:56:05.667Z,25.82
2022-08-05T21:58:15.015Z,25.83
2022-08-05T22:00:42.669Z,25.83
2022-08-05T22:03:09.743Z,25.82
2022-08-05T22:05:48.423Z,25.82
2022-08-05T22:08:02.274Z,25.82
2022-08-05T22:10:27.561Z,25.82
2022-08-05T22:12:53.306Z,25.82
2022-08-05T22:16:01.367Z,25.82
2022-08-05T22:17:48.508Z,25.82
2022-08-05T22:20:16.451Z,25.82
2022-08-05T22:22:42.567Z,25.82
2022-08-05T22:25:08.785Z,25.82
2022-08-05T22:28:08.470Z,25.82
2022-08-05T22:30:00.387Z,25.82
2022-08-05T22:32:27.065Z,25.81
2022-08-05T22:34:53.165Z,25.81
2022-08-05T22:37:19.595Z,25.80
2022-08-05T22:39:50.509Z,25.81
2022-08-05T22:42:21.496Z,25.80
2022-08-05T22:44:38.831Z,25.81
2022-08-05T22:47:05.965Z,25.79
2022-08-05T22:50:18.014Z,25.78
2022-08-05T22:52:05.287Z,25.80
2022-08-05T22:54:24.369Z,25.80
2022-08-05T22:56:50.867Z,25.79
2022-08-05T22:59:45.192Z,25.79
2022-08-05T23:02:04.611Z,25.79
2022-08-05T23:04:10.440Z,25.80
2022-08-05T23:06:36.886Z,25.79
2022-08-05T23:09:26.937Z,25.80
2022-08-05T23:11:29.956Z,25.79
2022-08-05T23:13:56.492Z,25.80
2022-08-05T23:16:33.277Z,25.77
2022-08-05T23:18:49.390Z,25.79
2022-08-05T23:21:16.503Z,25.78
2022-08-05T23:23:42.327Z,25.78
2022-08-05T23:26:08.863Z,25.78
2022-08-05T23:28:35.400Z,25.78
2022-08-05T23:31:16.206Z,25.77
2022-08-05T23:34:03.908Z,25.79
2022-08-05T23:35:55.995Z,25.79
2022-08-05T23:38:21.443Z,25.79
2022-08-05T23:40:49.697Z,25.77
2022-08-05T23:43:25.159Z,25.78
2022-08-05T23:45:40.943Z,25.76
2022-08-05T23:48:07.499Z,25.75
2022-08-05T23:50:34.019Z,25.77
2022-08-05T23:53:00.902Z,25.75
2022-08-05T23:55:31.085Z,25.78
2022-08-05T23:57:53.631Z,25.75
